TimeCDT,TemperatureF,Dew PointF,Humidity,Sea Level PressureIn,VisibilityMPH,Wind Direction,Wind SpeedMPH,Gust SpeedMPH,PrecipitationIn,Events,Conditions,WindDirDegrees,DateUTC
12:15 AM,34.9,27.1,73,29.99,10.0,WNW,6.9,-,N/A,,Overcast,290,2013-10-24 05:15:00
12:35 AM,34.9,27.1,73,29.99,10.0,WNW,8.1,-,N/A,,Overcast,290,2013-10-24 05:35:00
12:55 AM,34.7,27.3,74,29.99,10.0,West,6.9,-,N/A,,Overcast,280,2013-10-24 05:55:00
1:15 AM,34.3,27.5,76,30.00,10.0,WNW,5.8,-,N/A,,Overcast,290,2013-10-24 06:15:00
1:35 AM,34.2,27.7,77,30.00,10.0,WNW,5.8,-,N/A,,Overcast,290,2013-10-24 06:35:00
1:55 AM,34.2,27.3,76,30.00,10.0,WNW,8.1,-,N/A,,Overcast,290,2013-10-24 06:55:00
2:15 AM,34.0,26.6,74,30.00,10.0,WNW,8.1,-,N/A,,Overcast,300,2013-10-24 07:15:00
2:35 AM,33.8,27.0,76,30.01,10.0,NW,6.9,-,N/A,,Overcast,310,2013-10-24 07:35:00
2:55 AM,33.8,27.0,76,30.01,10.0,WNW,8.1,-,N/A,,Overcast,300,2013-10-24 07:55:00
3:15 AM,33.3,27.1,78,30.01,10.0,NW,4.6,-,N/A,,Overcast,310,2013-10-24 08:15:00
3:35 AM,33.1,27.3,79,30.02,10.0,WNW,5.8,-,N/A,,Overcast,300,2013-10-24 08:35:00
3:55 AM,32.9,27.5,81,30.02,10.0,WNW,5.8,-,N/A,,Overcast,300,2013-10-24 08:55:00
4:15 AM,32.5,27.3,81,30.03,10.0,WNW,6.9,-,N/A,,Overcast,300,2013-10-24 09:15:00
4:35 AM,32.0,26.8,81,30.03,10.0,WNW,5.8,-,N/A,,Overcast,290,2013-10-24 09:35:00
4:55 AM,31.6,26.6,82,30.04,10.0,West,5.8,-,N/A,,Scattered Clouds,280,2013-10-24 09:55:00
5:15 AM,31.1,26.1,82,30.05,10.0,West,4.6,-,N/A,,Scattered Clouds,280,2013-10-24 10:15:00
5:35 AM,30.2,26.1,85,30.05,10.0,WNW,5.8,-,N/A,,Mostly Cloudy,290,2013-10-24 10:35:00
5:55 AM,30.2,25.7,83,30.06,10.0,WNW,5.8,-,N/A,,Overcast,300,2013-10-24 10:55:00
6:15 AM,29.3,25.5,86,30.06,10.0,West,4.6,-,N/A,,Scattered Clouds,280,2013-10-24 11:15:00
6:35 AM,28.8,25.0,86,30.07,10.0,WNW,4.6,-,N/A,,Clear,290,2013-10-24 11:35:00
6:55 AM,28.4,24.8,86,30.07,10.0,West,4.6,-,N/A,,Clear,280,2013-10-24 11:55:00
7:15 AM,28.2,24.8,87,30.08,10.0,West,4.6,-,N/A,,Clear,280,2013-10-24 12:15:00
7:35 AM,27.5,24.6,89,30.08,10.0,West,3.5,-,N/A,,Clear,280,2013-10-24 12:35:00
7:55 AM,27.7,24.4,88,30.09,10.0,Calm,Calm,-,N/A,,Clear,0,2013-10-24 12:55:00
8:15 AM,29.1,25.2,85,30.10,10.0,Calm,Calm,-,N/A,,Clear,0,2013-10-24 13:15:00
8:35 AM,30.6,25.9,83,30.10,10.0,West,3.5,-,N/A,,Clear,280,2013-10-24 13:35:00
8:55 AM,32.0,26.4,80,30.11,10.0,WNW,4.6,-,N/A,,Clear,290,2013-10-24 13:55:00
9:15 AM,34.5,26.1,71,30.11,10.0,NW,10.4,17.3,N/A,,Clear,310,2013-10-24 14:15:00
9:35 AM,35.6,26.2,69,30.12,10.0,WNW,10.4,-,N/A,,Clear,300,2013-10-24 14:35:00
9:55 AM,36.7,26.6,67,30.12,10.0,NW,12.7,16.1,N/A,,Clear,310,2013-10-24 14:55:00
10:15 AM,37.9,26.1,62,30.13,10.0,NW,15.0,18.4,N/A,,Scattered Clouds,320,2013-10-24 15:15:00
10:35 AM,36.9,26.6,66,30.14,10.0,NW,11.5,19.6,N/A,,Overcast,310,2013-10-24 15:35:00
10:55 AM,37.4,26.4,65,30.14,10.0,WNW,13.8,-,N/A,,Overcast,300,2013-10-24 15:55:00
11:15 AM,37.0,25.9,64,30.14,10.0,NW,10.4,-,N/A,,Overcast,310,2013-10-24 16:15:00
11:35 AM,37.4,24.8,60,30.15,10.0,WNW,12.7,17.3,N/A,,Overcast,300,2013-10-24 16:35:00
11:55 AM,37.9,25.2,60,30.15,10.0,NW,11.5,17.3,N/A,,Overcast,310,2013-10-24 16:55:00
12:15 PM,37.6,25.7,62,30.15,10.0,WNW,11.5,18.4,N/A,,Overcast,300,2013-10-24 17:15:00
12:35 PM,37.8,26.2,63,30.15,10.0,NW,12.7,-,N/A,,Overcast,320,2013-10-24 17:35:00
12:55 PM,37.9,26.6,64,30.15,10.0,NW,8.1,17.3,N/A,,Overcast,310,2013-10-24 17:55:00
1:15 PM,37.9,26.8,64,30.16,10.0,WNW,8.1,-,N/A,,Overcast,290,2013-10-24 18:15:00
1:35 PM,39.2,25.5,58,30.15,10.0,WNW,11.5,-,N/A,,Overcast,300,2013-10-24 18:35:00
1:55 PM,40.5,26.4,57,30.15,10.0,NW,8.1,-,N/A,,Overcast,320,2013-10-24 18:55:00
2:15 PM,40.3,26.2,57,30.15,10.0,West,11.5,16.1,N/A,,Overcast,280,2013-10-24 19:15:00
2:35 PM,41.0,26.4,56,30.15,10.0,NW,9.2,-,N/A,,Overcast,320,2013-10-24 19:35:00
2:55 PM,41.2,25.5,54,30.16,10.0,NW,6.9,10.4,N/A,,Overcast,310,2013-10-24 19:55:00
3:15 PM,42.3,24.8,50,30.16,10.0,West,10.4,16.1,N/A,,Overcast,280,2013-10-24 20:15:00
3:35 PM,41.5,24.6,51,30.16,10.0,WNW,10.4,-,N/A,,Overcast,300,2013-10-24 20:35:00
3:55 PM,41.2,24.3,51,30.17,10.0,NW,10.4,17.3,N/A,,Mostly Cloudy,310,2013-10-24 20:55:00
4:07 PM,42.8,24.8,49,30.17,10.0,WNW,15.0,-,N/A,,Mostly Cloudy,290,2013-10-24 21:07:00
4:15 PM,42.8,24.3,48,30.17,10.0,WNW,11.5,17.3,N/A,,Mostly Cloudy,290,2013-10-24 21:15:00
4:35 PM,42.4,23.5,47,30.18,10.0,WNW,13.8,17.3,N/A,,Mostly Cloudy,300,2013-10-24 21:35:00
4:55 PM,41.2,23.7,50,30.19,10.0,NW,12.7,20.7,N/A,,Overcast,310,2013-10-24 21:55:00
5:15 PM,40.6,24.1,52,30.19,10.0,WNW,9.2,-,N/A,,Overcast,300,2013-10-24 22:15:00
5:35 PM,40.1,23.9,52,30.19,10.0,WNW,8.1,-,N/A,,Mostly Cloudy,300,2013-10-24 22:35:00
5:55 PM,38.8,24.3,56,30.20,10.0,WNW,4.6,-,N/A,,Scattered Clouds,290,2013-10-24 22:55:00
6:15 PM,38.7,24.3,56,30.20,10.0,West,4.6,-,N/A,,Mostly Cloudy,280,2013-10-24 23:15:00
6:35 PM,38.1,24.3,57,30.20,10.0,West,3.5,-,N/A,,Overcast,270,2013-10-24 23:35:00
6:55 PM,38.3,24.6,58,30.21,10.0,West,3.5,-,N/A,,Overcast,280,2013-10-24 23:55:00
7:15 PM,37.9,24.8,59,30.22,10.0,West,5.8,-,N/A,,Overcast,280,2013-10-25 00:15:00
7:35 PM,38.3,24.8,58,30.23,10.0,WNW,6.9,-,N/A,,Overcast,290,2013-10-25 00:35:00
7:55 PM,38.5,25.2,59,30.23,10.0,WNW,5.8,-,N/A,,Overcast,300,2013-10-25 00:55:00
8:15 PM,37.8,25.2,60,30.23,10.0,WNW,4.6,-,N/A,,Overcast,300,2013-10-25 01:15:00
8:35 PM,36.5,24.8,63,30.24,10.0,West,3.5,-,N/A,,Scattered Clouds,280,2013-10-25 01:35:00
8:55 PM,35.6,24.6,64,30.24,10.0,West,3.5,-,N/A,,Scattered Clouds,260,2013-10-25 01:55:00
9:15 PM,35.1,24.4,65,30.25,10.0,West,3.5,-,N/A,,Scattered Clouds,270,2013-10-25 02:15:00
9:35 PM,34.0,23.9,67,30.25,10.0,West,4.6,-,N/A,,Clear,270,2013-10-25 02:35:00
9:55 PM,32.9,23.9,69,30.26,10.0,Calm,Calm,-,N/A,,Clear,0,2013-10-25 02:55:00
10:15 PM,32.2,23.7,71,30.26,10.0,Calm,Calm,-,N/A,,Clear,0,2013-10-25 03:15:00
10:35 PM,29.5,23.4,78,30.26,10.0,Calm,Calm,-,N/A,,Clear,0,2013-10-25 03:35:00
10:55 PM,30.9,23.7,75,30.27,10.0,Calm,Calm,-,N/A,,Clear,0,2013-10-25 03:55:00
11:15 PM,30.4,23.4,75,30.27,10.0,Calm,Calm,-,N/A,,Clear,0,2013-10-25 04:15:00
11:35 PM,29.3,23.5,79,30.27,10.0,Calm,Calm,-,N/A,,Clear,0,2013-10-25 04:35:00
11:55 PM,27.3,23.2,84,30.27,10.0,Calm,Calm,-,N/A,,Clear,0,2013-10-25 04:55:00